createdAt,value
2022-10-02T00:01:12.844Z,12.08
2022-10-02T00:03:39.266Z,12.06
2022-10-02T00:06:05.511Z,12.17
2022-10-02T00:08:31.751Z,12.16
2022-10-02T00:10:58.008Z,12.14
2022-10-02T00:13:24.274Z,12.03
2022-10-02T00:15:50.523Z,12.02
2022-10-02T00:18:16.772Z,12.03
2022-10-02T00:20:43.029Z,11.98
2022-10-02T00:23:09.287Z,11.90
2022-10-02T00:25:35.535Z,11.99
2022-10-02T00:28:01.933Z,12.13
2022-10-02T00:30:28.224Z,12.16
2022-10-02T00:32:54.516Z,12.23
2022-10-02T00:35:20.830Z,12.31
2022-10-02T00:37:47.102Z,12.24
2022-10-02T00:40:13.354Z,12.24
2022-10-02T00:42:39.617Z,12.09
2022-10-02T00:45:05.871Z,12.10
2022-10-02T00:47:32.159Z,12.09
2022-10-02T00:49:58.414Z,12.15
2022-10-02T00:52:24.687Z,12.21
2022-10-02T00:54:50.962Z,12.17
2022-10-02T00:57:17.225Z,12.12
2022-10-02T00:59:44.840Z,12.08
2022-10-02T01:02:11.135Z,12.12
2022-10-02T01:04:37.434Z,12.15
2022-10-02T01:07:03.688Z,12.01
2022-10-02T01:09:29.945Z,11.99
2022-10-02T01:11:56.185Z,12.04
2022-10-02T01:14:22.454Z,12.07
2022-10-02T01:16:48.743Z,12.05
2022-10-02T01:19:15.014Z,11.98
2022-10-02T01:21:41.325Z,11.97
2022-10-02T01:24:07.579Z,11.92
2022-10-02T01:26:34.136Z,11.94
2022-10-02T01:29:00.559Z,11.90
2022-10-02T01:31:26.864Z,11.91
2022-10-02T01:33:53.194Z,11.92
2022-10-02T01:36:19.496Z,12.03
2022-10-02T01:38:45.780Z,11.93
2022-10-02T01:41:12.040Z,11.95
2022-10-02T01:43:38.300Z,11.96
2022-10-02T01:46:04.592Z,12.02
2022-10-02T01:48:30.948Z,12.00
2022-10-02T01:50:57.214Z,11.92
2022-10-02T01:53:23.476Z,11.84
2022-10-02T01:55:49.723Z,11.88
2022-10-02T01:58:17.135Z,11.87
2022-10-02T02:00:43.415Z,11.95
2022-10-02T02:03:09.687Z,11.82
2022-10-02T02:05:35.931Z,11.88
2022-10-02T02:08:02.210Z,11.84
2022-10-02T02:10:28.454Z,11.84
2022-10-02T02:12:54.711Z,12.01
2022-10-02T02:15:20.959Z,11.94
2022-10-02T02:17:47.216Z,11.94
2022-10-02T02:20:13.469Z,11.95
2022-10-02T02:22:40.420Z,11.99
2022-10-02T02:25:06.672Z,12.02
2022-10-02T02:27:32.925Z,12.01
2022-10-02T02:29:59.208Z,11.90
2022-10-02T02:32:25.464Z,11.94
2022-10-02T02:34:51.706Z,11.96
2022-10-02T02:37:19.144Z,12.00
2022-10-02T02:39:45.993Z,11.98
2022-10-02T02:42:15.619Z,11.94
2022-10-02T02:44:44.010Z,11.91
2022-10-02T02:47:12.639Z,11.96
2022-10-02T02:49:38.949Z,11.85
2022-10-02T02:52:05.215Z,11.89
2022-10-02T02:54:31.536Z,11.92
2022-10-02T02:56:58.126Z,11.91
2022-10-02T02:59:24.366Z,11.91
2022-10-02T03:01:50.645Z,11.86
2022-10-02T03:04:16.952Z,11.93
2022-10-02T03:06:43.211Z,12.00
2022-10-02T03:09:09.462Z,12.04
2022-10-02T03:11:35.763Z,12.06
2022-10-02T03:14:02.082Z,12.11
2022-10-02T03:16:28.395Z,12.14
2022-10-02T03:18:54.664Z,12.14
2022-10-02T03:21:20.936Z,12.14
2022-10-02T03:23:47.223Z,12.23
2022-10-02T03:26:13.482Z,12.30
2022-10-02T03:28:56.617Z,12.34
2022-10-02T03:31:23.353Z,12.43
2022-10-02T03:33:49.750Z,12.35
2022-10-02T03:36:20.640Z,12.40
2022-10-02T03:38:56.889Z,12.43
2022-10-02T03:41:32.736Z,12.48
2022-10-02T03:43:58.991Z,12.52
2022-10-02T03:46:25.309Z,12.47
2022-10-02T03:48:51.659Z,12.45
2022-10-02T03:51:17.915Z,12.52
2022-10-02T03:53:44.335Z,12.52
2022-10-02T03:56:10.589Z,12.56
2022-10-02T03:58:36.887Z,12.54
2022-10-02T04:01:03.183Z,12.42
2022-10-02T04:03:29.521Z,12.43
2022-10-02T04:05:55.802Z,12.27
2022-10-02T04:08:22.061Z,12.28
2022-10-02T04:10:48.826Z,12.28
2022-10-02T04:13:15.071Z,12.12
2022-10-02T04:15:41.336Z,12.15
2022-10-02T04:18:07.592Z,12.14
2022-10-02T04:20:33.922Z,12.08
2022-10-02T04:23:00.173Z,11.91
2022-10-02T04:25:26.462Z,12.04
2022-10-02T04:27:52.905Z,11.90
2022-10-02T04:30:19.233Z,11.93
2022-10-02T04:32:45.497Z,11.94
2022-10-02T04:35:11.741Z,11.85
2022-10-02T04:37:38.004Z,11.89
2022-10-02T04:40:06.683Z,11.97
2022-10-02T04:42:32.966Z,11.83
2022-10-02T04:44:59.238Z,11.92
2022-10-02T04:47:25.499Z,11.90
2022-10-02T04:49:51.762Z,11.77
2022-10-02T04:52:18.015Z,11.89
2022-10-02T04:54:44.269Z,11.95
2022-10-02T04:57:10.518Z,11.86
2022-10-02T04:59:36.790Z,11.96
2022-10-02T05:02:03.135Z,11.78
2022-10-02T05:04:29.483Z,11.76
2022-10-02T05:06:55.741Z,11.85
2022-10-02T05:09:25.866Z,11.78
2022-10-02T05:11:54.547Z,11.86
2022-10-02T05:14:20.803Z,11.84
2022-10-02T05:16:47.087Z,11.84
2022-10-02T05:19:13.336Z,11.78
2022-10-02T05:21:39.579Z,11.73
2022-10-02T05:24:05.856Z,11.81
2022-10-02T05:26:32.102Z,11.55
2022-10-02T05:28:58.362Z,11.72
2022-10-02T05:31:24.659Z,11.83
2022-10-02T05:33:50.930Z,11.65
2022-10-02T05:36:17.184Z,11.86
2022-10-02T05:38:43.450Z,11.79
2022-10-02T05:41:09.696Z,11.86
2022-10-02T05:43:35.975Z,11.88
2022-10-02T05:46:02.220Z,12.03
2022-10-02T05:48:28.498Z,12.08
2022-10-02T05:50:54.749Z,12.07
2022-10-02T05:53:21.043Z,12.24
2022-10-02T05:55:47.285Z,12.35
2022-10-02T05:58:13.572Z,12.39
2022-10-02T06:00:39.874Z,12.50
2022-10-02T06:03:08.135Z,12.49
2022-10-02T06:05:34.394Z,12.65
2022-10-02T06:08:01.982Z,12.62
2022-10-02T06:10:28.794Z,12.80
2022-10-02T06:12:55.051Z,12.65
2022-10-02T06:15:24.118Z,12.61
2022-10-02T06:17:50.369Z,12.66
2022-10-02T06:20:16.642Z,12.67
2022-10-02T06:22:42.912Z,12.61
2022-10-02T06:25:09.165Z,12.64
2022-10-02T06:27:35.410Z,12.56
2022-10-02T06:30:02.064Z,12.64
2022-10-02T06:32:28.345Z,12.75
2022-10-02T06:34:54.600Z,12.82
2022-10-02T06:37:20.866Z,12.89
2022-10-02T06:39:47.115Z,13.04
2022-10-02T06:42:13.494Z,13.14
2022-10-02T06:44:39.750Z,13.21
2022-10-02T06:47:06.106Z,13.31
2022-10-02T06:49:32.426Z,13.39
2022-10-02T06:51:59.077Z,13.48
2022-10-02T06:54:26.006Z,13.66
2022-10-02T06:56:52.249Z,13.73
2022-10-02T06:59:18.507Z,13.78
2022-10-02T07:01:46.739Z,13.90
2022-10-02T07:04:13.046Z,13.99
2022-10-02T07:06:39.839Z,14.17
2022-10-02T07:09:06.294Z,14.28
2022-10-02T07:11:32.753Z,14.44
2022-10-02T07:13:59.246Z,14.47
2022-10-02T07:16:25.659Z,14.69
2022-10-02T07:18:52.596Z,14.82
2022-10-02T07:21:18.855Z,14.92
2022-10-02T07:23:45.105Z,14.91
2022-10-02T07:26:11.384Z,14.89
2022-10-02T07:28:37.626Z,14.82
2022-10-02T07:31:07.000Z,14.95
2022-10-02T07:33:33.331Z,15.16
2022-10-02T07:35:59.611Z,15.12
2022-10-02T07:38:42.993Z,15.29
2022-10-02T07:41:09.255Z,15.40
2022-10-02T07:43:35.513Z,15.54
2022-10-02T07:46:01.824Z,15.61
2022-10-02T07:48:28.101Z,15.73
2022-10-02T07:50:54.392Z,15.80
2022-10-02T07:53:20.648Z,15.94
2022-10-02T07:55:46.906Z,15.83
2022-10-02T07:58:13.156Z,15.53
2022-10-02T08:00:39.409Z,16.00
2022-10-02T08:03:05.703Z,15.85
2022-10-02T08:08:24.492Z,16.08
2022-10-02T08:10:50.742Z,16.26
2022-10-02T08:13:20.356Z,16.10
2022-10-02T08:15:47.192Z,16.32
2022-10-02T08:18:33.003Z,16.27
2022-10-02T08:20:59.786Z,16.22
2022-10-02T08:23:26.030Z,16.45
2022-10-02T08:25:52.290Z,16.42
2022-10-02T08:28:19.497Z,16.48
2022-10-02T08:30:45.834Z,16.68
2022-10-02T08:33:12.088Z,16.70
2022-10-02T08:35:38.331Z,16.76
2022-10-02T08:38:08.589Z,17.01
2022-10-02T08:40:34.866Z,17.15
2022-10-02T08:43:04.103Z,17.33
2022-10-02T08:45:33.905Z,17.51
2022-10-02T08:48:00.247Z,17.60
2022-10-02T08:50:29.957Z,17.72
2022-10-02T08:52:56.462Z,17.44
2022-10-02T08:55:22.734Z,17.41
2022-10-02T08:57:49.561Z,17.45
2022-10-02T09:00:15.851Z,17.23
2022-10-02T09:02:42.120Z,17.13
2022-10-02T09:05:09.696Z,17.03
2022-10-02T09:07:36.763Z,17.51
2022-10-02T09:10:02.953Z,16.89
2022-10-02T09:12:29.239Z,16.78
2022-10-02T09:14:58.750Z,17.00
2022-10-02T09:17:30.570Z,17.04
2022-10-02T09:19:56.825Z,17.21
2022-10-02T09:22:23.166Z,17.21
2022-10-02T09:24:49.414Z,17.71
2022-10-02T09:27:15.691Z,17.98
2022-10-02T09:29:42.139Z,17.69
2022-10-02T09:32:09.492Z,17.72
2022-10-02T09:34:35.746Z,17.53
2022-10-02T09:37:02.202Z,17.38
2022-10-02T09:39:29.210Z,17.45
2022-10-02T09:41:55.405Z,17.82
2022-10-02T09:44:22.463Z,18.32
2022-10-02T09:46:51.041Z,18.00
2022-10-02T09:49:17.313Z,17.90
2022-10-02T09:51:43.584Z,17.73
2022-10-02T09:54:10.168Z,17.25
2022-10-02T09:56:36.652Z,16.82
2022-10-02T09:59:03.186Z,16.37
2022-10-02T10:01:29.534Z,16.65
2022-10-02T10:03:55.833Z,16.63
2022-10-02T10:06:22.104Z,16.52
2022-10-02T10:08:48.380Z,16.72
2022-10-02T10:11:14.637Z,16.91
2022-10-02T10:13:40.948Z,16.87
2022-10-02T10:16:10.519Z,17.06
2022-10-02T10:18:39.341Z,16.63
2022-10-02T10:21:05.595Z,16.72
2022-10-02T10:23:35.055Z,16.78
2022-10-02T10:26:01.338Z,16.96
2022-10-02T10:28:27.680Z,17.22
2022-10-02T10:30:53.973Z,17.48
2022-10-02T10:33:20.248Z,17.34
2022-10-02T10:35:47.273Z,17.41
2022-10-02T10:38:31.934Z,17.54
2022-10-02T10:40:58.255Z,17.54
2022-10-02T10:43:24.515Z,17.44
2022-10-02T10:45:50.790Z,17.65
2022-10-02T10:48:18.591Z,18.00
2022-10-02T10:50:45.914Z,17.83
2022-10-02T10:53:12.240Z,17.75
2022-10-02T10:55:38.515Z,18.01
2022-10-02T10:58:05.023Z,17.69
2022-10-02T11:00:31.305Z,17.90
2022-10-02T11:02:58.530Z,17.81
2022-10-02T11:05:24.805Z,18.09
2022-10-02T11:07:51.056Z,18.15
2022-10-02T11:10:17.315Z,18.16
2022-10-02T11:12:43.856Z,17.97
2022-10-02T11:15:12.992Z,17.71
2022-10-02T11:17:39.731Z,17.85
2022-10-02T11:20:06.015Z,17.75
2022-10-02T11:22:32.271Z,17.68
2022-10-02T11:24:58.582Z,17.75
2022-10-02T11:27:24.853Z,17.79
2022-10-02T11:29:51.890Z,17.59
2022-10-02T11:32:18.101Z,17.88
2022-10-02T11:34:44.599Z,17.94
2022-10-02T11:37:11.377Z,17.90
2022-10-02T11:39:37.648Z,17.73
2022-10-02T11:42:05.633Z,18.02
2022-10-02T11:44:31.811Z,17.79
2022-10-02T11:46:58.111Z,17.87
2022-10-02T11:49:26.890Z,17.65
2022-10-02T11:51:53.172Z,17.49
2022-10-02T11:54:19.619Z,17.78
2022-10-02T11:56:45.883Z,17.78
2022-10-02T11:59:13.592Z,17.72
2022-10-02T12:01:40.600Z,17.54
2022-10-02T12:04:06.822Z,17.34
2022-10-02T12:06:33.538Z,17.45
2022-10-02T12:08:59.815Z,16.81
2022-10-02T12:11:26.081Z,17.00
2022-10-02T12:13:52.367Z,17.45
2022-10-02T12:16:19.231Z,17.29
2022-10-02T12:18:45.582Z,17.32
2022-10-02T12:21:30.716Z,17.53
2022-10-02T12:24:15.571Z,17.16
2022-10-02T12:27:00.120Z,17.36
2022-10-02T12:29:26.399Z,17.29
2022-10-02T12:31:52.720Z,17.22
2022-10-02T12:34:19.880Z,17.49
2022-10-02T12:36:46.059Z,17.45
2022-10-02T12:39:12.353Z,17.48
2022-10-02T12:41:39.050Z,17.38
2022-10-02T12:44:05.602Z,17.43
2022-10-02T12:46:31.951Z,17.65
2022-10-02T12:48:58.252Z,17.75
2022-10-02T12:51:24.499Z,17.87
2022-10-02T12:53:50.766Z,17.38
2022-10-02T12:56:17.032Z,17.32
2022-10-02T12:58:43.308Z,17.04
2022-10-02T13:01:09.635Z,17.41
2022-10-02T13:03:35.919Z,17.63
2022-10-02T13:06:03.515Z,17.65
2022-10-02T13:08:29.808Z,17.54
2022-10-02T13:10:57.315Z,17.42
2022-10-02T13:13:24.803Z,17.56
2022-10-02T13:15:54.793Z,17.35
2022-10-02T13:18:21.094Z,17.36
2022-10-02T13:20:48.940Z,17.23
2022-10-02T13:23:15.273Z,17.44
2022-10-02T13:25:42.645Z,17.63
2022-10-02T13:28:10.616Z,18.05
2022-10-02T13:30:36.832Z,18.41
2022-10-02T13:33:05.860Z,17.99
2022-10-02T13:35:32.491Z,17.75
2022-10-02T13:37:59.106Z,17.67
2022-10-02T13:40:25.433Z,17.47
2022-10-02T13:42:51.722Z,17.19
2022-10-02T13:45:18.277Z,17.09
2022-10-02T13:47:44.555Z,17.32
2022-10-02T13:50:15.341Z,17.31
2022-10-02T13:52:43.698Z,17.13
2022-10-02T13:55:09.943Z,17.31
2022-10-02T13:57:36.218Z,17.25
2022-10-02T14:00:02.509Z,17.03
2022-10-02T14:02:28.773Z,17.23
2022-10-02T14:04:55.403Z,17.40
2022-10-02T14:07:21.687Z,17.32
2022-10-02T14:09:47.944Z,17.54
2022-10-02T14:12:14.200Z,17.78
2022-10-02T14:14:40.459Z,17.77
2022-10-02T14:17:06.722Z,17.69
2022-10-02T14:19:33.639Z,17.26
2022-10-02T14:21:59.904Z,17.41
2022-10-02T14:24:46.127Z,17.52
2022-10-02T14:27:12.403Z,17.64
2022-10-02T14:29:38.720Z,17.57
2022-10-02T14:32:05.118Z,17.25
2022-10-02T14:34:31.909Z,17.10
2022-10-02T14:36:58.181Z,17.10
2022-10-02T14:39:24.443Z,16.97
2022-10-02T14:41:51.650Z,17.09
2022-10-02T14:44:17.908Z,16.16
2022-10-02T14:46:44.154Z,14.79
2022-10-02T14:49:10.532Z,15.30
2022-10-02T14:51:37.114Z,15.68
2022-10-02T14:54:03.688Z,15.95
2022-10-02T14:56:29.940Z,16.18
2022-10-02T14:58:56.318Z,15.58
2022-10-02T15:01:22.855Z,16.15
2022-10-02T15:03:49.215Z,16.17
2022-10-02T15:06:15.490Z,16.28
2022-10-02T15:08:41.742Z,16.41
2022-10-02T15:11:08.786Z,16.52
2022-10-02T15:13:35.096Z,16.60
2022-10-02T15:16:19.868Z,16.44
2022-10-02T15:18:46.156Z,16.60
2022-10-02T15:21:12.406Z,16.35
2022-10-02T15:23:40.398Z,16.46
2022-10-02T15:26:07.338Z,16.69
2022-10-02T15:28:36.890Z,16.43
2022-10-02T15:31:03.856Z,16.47
2022-10-02T15:33:30.318Z,16.38
2022-10-02T15:35:56.664Z,16.49
2022-10-02T15:38:22.925Z,16.36
2022-10-02T15:40:49.839Z,16.34
2022-10-02T15:43:16.103Z,16.45
2022-10-02T15:45:42.393Z,16.48
2022-10-02T15:48:10.002Z,16.40
2022-10-02T15:50:36.246Z,16.54
2022-10-02T15:53:02.990Z,16.24
2022-10-02T15:55:29.243Z,16.35
2022-10-02T15:57:55.519Z,16.33
2022-10-02T16:00:21.770Z,16.16
2022-10-02T16:02:48.327Z,16.06
2022-10-02T16:05:15.126Z,16.17
2022-10-02T16:07:41.427Z,16.04
2022-10-02T16:10:07.782Z,16.19
2022-10-02T16:12:34.059Z,15.86
2022-10-02T16:15:00.317Z,16.00
2022-10-02T16:17:26.594Z,15.80
2022-10-02T16:19:52.900Z,15.89
2022-10-02T16:22:19.330Z,15.72
2022-10-02T16:24:45.593Z,15.81
2022-10-02T16:27:11.848Z,15.79
2022-10-02T16:29:38.380Z,15.78
2022-10-02T16:32:04.642Z,15.59
2022-10-02T16:34:30.902Z,15.61
2022-10-02T16:36:57.172Z,15.50
2022-10-02T16:39:23.427Z,15.38
2022-10-02T16:41:49.714Z,15.39
2022-10-02T16:44:15.968Z,15.49
2022-10-02T16:46:42.599Z,15.50
2022-10-02T16:49:08.857Z,15.35
2022-10-02T16:51:35.110Z,15.29
2022-10-02T16:54:01.724Z,15.27
2022-10-02T16:56:27.975Z,15.30
2022-10-02T16:58:57.970Z,15.36
2022-10-02T17:01:26.887Z,15.48
2022-10-02T17:03:53.227Z,15.41
2022-10-02T17:06:19.477Z,15.43
2022-10-02T17:08:45.824Z,15.43
2022-10-02T17:11:12.066Z,15.14
2022-10-02T17:13:38.327Z,15.09
2022-10-02T17:16:04.628Z,14.88
2022-10-02T17:18:30.907Z,14.64
2022-10-02T17:20:57.154Z,14.69
2022-10-02T17:23:23.407Z,14.61
2022-10-02T17:25:49.772Z,14.83
2022-10-02T17:28:16.847Z,14.79
2022-10-02T17:30:43.089Z,14.82
2022-10-02T17:33:09.484Z,14.71
2022-10-02T17:35:35.740Z,14.77
2022-10-02T17:38:02.322Z,14.67
2022-10-02T17:40:28.584Z,14.78
2022-10-02T17:42:54.857Z,14.76
2022-10-02T17:45:27.139Z,14.80
2022-10-02T17:47:53.425Z,14.94
2022-10-02T17:50:19.687Z,14.85
2022-10-02T17:53:04.538Z,14.91
2022-10-02T17:56:09.098Z,14.67
2022-10-02T17:58:35.556Z,14.48
2022-10-02T18:01:05.605Z,14.62
2022-10-02T18:03:31.925Z,14.54
2022-10-02T18:05:58.180Z,14.54
2022-10-02T18:08:28.557Z,14.46
2022-10-02T18:10:56.663Z,14.50
2022-10-02T18:13:22.928Z,14.60
2022-10-02T18:15:49.185Z,14.45
2022-10-02T18:18:15.436Z,14.61
2022-10-02T18:20:41.696Z,14.42
2022-10-02T18:23:08.397Z,14.23
2022-10-02T18:25:34.678Z,13.94
2022-10-02T18:28:00.962Z,14.36
2022-10-02T18:30:29.095Z,14.36
2022-10-02T18:32:55.627Z,14.15
2022-10-02T18:35:22.115Z,14.08
2022-10-02T18:37:48.366Z,14.29
2022-10-02T18:40:14.635Z,14.23
2022-10-02T18:42:40.987Z,14.34
2022-10-02T18:45:07.291Z,14.34
2022-10-02T18:47:34.221Z,14.29
2022-10-02T18:50:00.496Z,14.16
2022-10-02T18:52:26.750Z,14.05
2022-10-02T18:54:53.028Z,14.24
2022-10-02T18:57:20.896Z,14.06
2022-10-02T18:59:47.163Z,13.84
2022-10-02T19:02:14.093Z,13.87
2022-10-02T19:04:40.412Z,13.90
2022-10-02T19:07:06.668Z,13.74
2022-10-02T19:09:32.942Z,13.92
2022-10-02T19:12:01.223Z,13.82
2022-10-02T19:14:27.491Z,13.93
2022-10-02T19:16:53.763Z,13.79
2022-10-02T19:19:20.051Z,13.77
2022-10-02T19:21:46.298Z,13.84
2022-10-02T19:24:15.112Z,13.82
2022-10-02T19:26:41.397Z,13.54
2022-10-02T19:29:08.057Z,13.48
2022-10-02T19:31:35.623Z,13.42
2022-10-02T19:34:03.374Z,13.53
2022-10-02T19:36:30.240Z,13.75
2022-10-02T19:38:56.511Z,13.28
2022-10-02T19:41:23.366Z,13.47
2022-10-02T19:43:49.684Z,13.50
2022-10-02T19:46:15.953Z,13.63
2022-10-02T19:48:42.266Z,13.50
2022-10-02T19:51:08.544Z,13.40
2022-10-02T19:53:34.811Z,13.31
2022-10-02T19:56:01.071Z,13.35
2022-10-02T19:58:27.316Z,13.07
2022-10-02T20:00:53.595Z,13.28
2022-10-02T20:03:19.879Z,13.30
2022-10-02T20:05:46.164Z,13.14
2022-10-02T20:08:12.423Z,13.41
2022-10-02T20:10:38.673Z,13.40
2022-10-02T20:13:04.919Z,13.31
2022-10-02T20:15:49.674Z,13.25
2022-10-02T20:18:15.963Z,13.34
2022-10-02T20:20:42.220Z,13.22
2022-10-02T20:23:08.484Z,13.35
2022-10-02T20:25:34.729Z,13.37
2022-10-02T20:28:02.295Z,13.44
2022-10-02T20:30:28.598Z,13.56
2022-10-02T20:32:54.844Z,13.47
2022-10-02T20:35:21.263Z,13.53
2022-10-02T20:37:47.506Z,13.49
2022-10-02T20:40:13.934Z,13.40
2022-10-02T20:42:40.457Z,13.47
2022-10-02T21:02:03.066Z,13.05
2022-10-02T21:04:29.439Z,13.03
2022-10-02T21:06:55.700Z,13.06
2022-10-02T21:09:22.078Z,13.30
2022-10-02T21:11:50.576Z,13.32
2022-10-02T21:14:16.822Z,13.35
2022-10-02T21:16:43.126Z,13.16
2022-10-02T21:19:09.514Z,13.30
2022-10-02T21:21:36.016Z,13.05
2022-10-02T21:24:02.274Z,12.85
2022-10-02T21:26:28.918Z,13.05
2022-10-02T21:28:55.524Z,13.14
2022-10-02T21:31:21.842Z,13.19
2022-10-02T21:33:48.133Z,13.12
2022-10-02T21:36:15.580Z,13.12
2022-10-02T21:38:41.835Z,13.05
2022-10-02T21:41:08.094Z,13.12
2022-10-02T21:43:34.356Z,13.05
2022-10-02T21:46:00.651Z,12.92
2022-10-02T21:48:26.983Z,12.93
2022-10-02T21:50:54.279Z,12.95
2022-10-02T21:53:20.526Z,13.02
2022-10-02T21:55:47.035Z,13.02
2022-10-02T21:58:15.097Z,12.96
2022-10-02T22:00:41.297Z,13.12
2022-10-02T22:03:10.082Z,13.01
2022-10-02T22:05:36.400Z,12.89
2022-10-02T22:08:03.163Z,12.99
2022-10-02T22:10:29.444Z,12.78
2022-10-02T22:12:56.366Z,12.73
2022-10-02T22:15:22.645Z,12.80
2022-10-02T22:17:48.927Z,12.87
2022-10-02T22:20:15.512Z,12.84
2022-10-02T22:22:41.759Z,12.76
2022-10-02T22:25:08.075Z,12.66
2022-10-02T22:27:34.337Z,12.94
2022-10-02T22:30:00.617Z,12.75
2022-10-02T22:32:45.771Z,12.77
2022-10-02T22:35:12.131Z,12.74
2022-10-02T22:37:38.739Z,12.71
2022-10-02T22:40:04.995Z,12.67
2022-10-02T22:42:31.260Z,12.85
2022-10-02T22:44:57.519Z,12.70
2022-10-02T22:47:23.766Z,12.81
2022-10-02T22:49:50.019Z,12.83
2022-10-02T22:52:16.269Z,12.81
2022-10-02T22:54:42.506Z,12.56
2022-10-02T22:57:08.765Z,12.48
2022-10-02T22:59:35.010Z,12.62
2022-10-02T23:02:01.356Z,12.58
2022-10-02T23:04:28.767Z,12.56
2022-10-02T23:06:55.027Z,12.41
2022-10-02T23:09:21.285Z,12.48
2022-10-02T23:11:47.540Z,12.38
2022-10-02T23:14:13.796Z,12.46
2022-10-02T23:16:40.081Z,12.30
2022-10-02T23:19:06.342Z,12.34
2022-10-02T23:21:32.618Z,12.27
2022-10-02T23:23:58.916Z,12.27
2022-10-02T23:26:26.631Z,12.31
2022-10-02T23:28:53.118Z,12.42
2022-10-02T23:31:21.665Z,12.39
2022-10-02T23:33:47.953Z,12.26
2022-10-02T23:36:14.227Z,12.15
2022-10-02T23:38:40.478Z,12.17
2022-10-02T23:41:25.645Z,12.34
2022-10-02T23:43:51.911Z,12.22
2022-10-02T23:46:18.255Z,12.27
2022-10-02T23:48:45.342Z,12.39
2022-10-02T23:51:11.597Z,12.20
2022-10-02T23:53:37.994Z,12.24
2022-10-02T23:56:04.262Z,12.32
2022-10-02T23:58:30.537Z,12.31
